Wind Gusting 16 knots
10
November 21, 2017 1:57 PM EST
Weather Information
Wind Direction
  240 °
Wind Speed
  10 kt (12 mph)
Wind Gust
  16 kt (18 mph)
Altimeter
29.76 in
Visibility
10 SM
Temperature
09° C
48° F
Dewpoint
01° C
34° F
Humidity
58%
1hr Rain Fall
00.00 in.
24hr Rain Fall
00.00 in.
Sky Condition
Clear
VFR

METAR KONZ 211857Z AUTO 24010G16KT 10SM CLR 09/01 A2976 RMK AO2 T00910005

*Background is not an actual portrayal of the airport.